sensor_id;sensor_type;location;lat;lon;timestamp;pressure;altitude;pressure_sealevel;temperature;humidity
12759;BME280;20944;47.048;15.390;2023-04-08T00:01:40;97471.13;;;7.77;60.29
12759;BME280;20944;47.048;15.390;2023-04-08T00:04:08;97466.69;;;7.82;61.19
12759;BME280;20944;47.048;15.390;2023-04-08T00:06:37;97449.38;;;7.78;60.15
12759;BME280;20944;47.048;15.390;2023-04-08T00:09:05;97463.06;;;7.89;58.67
12759;BME280;20944;47.048;15.390;2023-04-08T00:11:33;97462.25;;;7.87;58.86
12759;BME280;20944;47.048;15.390;2023-04-08T00:14:03;97466.69;;;7.82;58.69
12759;BME280;20944;47.048;15.390;2023-04-08T00:16:32;97423.78;;;7.53;58.14
12759;BME280;20944;47.048;15.390;2023-04-08T00:19:00;97465.97;;;7.75;59.50
12759;BME280;20944;47.048;15.390;2023-04-08T00:21:28;97460.84;;;7.69;60.94
12759;BME280;20944;47.048;15.390;2023-04-08T00:23:57;97459.25;;;7.62;60.77
12759;BME280;20944;47.048;15.390;2023-04-08T00:26:25;97444.75;;;7.49;60.00
12759;BME280;20944;47.048;15.390;2023-04-08T00:28:54;97464.41;;;7.65;59.40
12759;BME280;20944;47.048;15.390;2023-04-08T00:31:23;97462.50;;;7.75;59.77
12759;BME280;20944;47.048;15.390;2023-04-08T00:33:51;97403.97;;;7.45;59.18
12759;BME280;20944;47.048;15.390;2023-04-08T00:36:20;97455.44;;;7.80;59.01
12759;BME280;20944;47.048;15.390;2023-04-08T00:38:48;97440.88;;;7.68;59.75
12759;BME280;20944;47.048;15.390;2023-04-08T00:41:16;97458.06;;;7.80;58.96
12759;BME280;20944;47.048;15.390;2023-04-08T00:43:44;97457.28;;;7.75;59.17
12759;BME280;20944;47.048;15.390;2023-04-08T00:46:13;97454.81;;;7.67;60.25
12759;BME280;20944;47.048;15.390;2023-04-08T00:48:42;97460.03;;;7.66;60.78
12759;BME280;20944;47.048;15.390;2023-04-08T00:51:11;97459.09;;;7.70;60.29
12759;BME280;20944;47.048;15.390;2023-04-08T00:53:39;97458.41;;;7.62;61.98
12759;BME280;20944;47.048;15.390;2023-04-08T00:56:08;97459.22;;;7.64;63.15
12759;BME280;20944;47.048;15.390;2023-04-08T00:58:37;97459.94;;;7.72;63.18
12759;BME280;20944;47.048;15.390;2023-04-08T01:01:10;97461.47;;;7.82;60.78
12759;BME280;20944;47.048;15.390;2023-04-08T01:03:49;97458.88;;;7.82;61.48
12759;BME280;20944;47.048;15.390;2023-04-08T01:06:28;97461.41;;;7.85;60.29
12759;BME280;20944;47.048;15.390;2023-04-08T01:08:59;97402.22;;;7.45;60.70
12759;BME280;20944;47.048;15.390;2023-04-08T01:11:28;97457.03;;;7.85;60.17
12759;BME280;20944;47.048;15.390;2023-04-08T01:13:58;97450.06;;;7.88;59.01
12759;BME280;20944;47.048;15.390;2023-04-08T01:16:31;97470.19;;;7.81;59.19
12759;BME280;20944;47.048;15.390;2023-04-08T01:19:04;97456.38;;;7.76;59.35
12759;BME280;20944;47.048;15.390;2023-04-08T01:21:36;97434.94;;;7.60;60.10
12759;BME280;20944;47.048;15.390;2023-04-08T01:24:10;97451.28;;;7.70;59.92
12759;BME280;20944;47.048;15.390;2023-04-08T01:26:44;97453.31;;;7.55;61.79
12759;BME280;20944;47.048;15.390;2023-04-08T01:29:13;97453.22;;;7.58;63.21
12759;BME280;20944;47.048;15.390;2023-04-08T01:31:42;97444.31;;;7.70;63.67
12759;BME280;20944;47.048;15.390;2023-04-08T01:34:13;97435.56;;;7.73;62.61
12759;BME280;20944;47.048;15.390;2023-04-08T01:36:44;97421.16;;;7.55;62.26
12759;BME280;20944;47.048;15.390;2023-04-08T01:39:14;97396.56;;;7.23;62.51
12759;BME280;20944;47.048;15.390;2023-04-08T01:41:45;97453.19;;;7.60;62.85
12759;BME280;20944;47.048;15.390;2023-04-08T01:44:14;97457.75;;;7.50;62.55
12759;BME280;20944;47.048;15.390;2023-04-08T01:46:43;97444.03;;;7.39;62.29
12759;BME280;20944;47.048;15.390;2023-04-08T01:49:13;97450.19;;;7.37;63.33
12759;BME280;20944;47.048;15.390;2023-04-08T01:51:43;97448.34;;;7.40;62.70
12759;BME280;20944;47.048;15.390;2023-04-08T01:54:13;97449.97;;;7.47;62.26
12759;BME280;20944;47.048;15.390;2023-04-08T01:56:45;97441.47;;;7.38;61.74
12759;BME280;20944;47.048;15.390;2023-04-08T01:59:14;97404.41;;;7.20;62.89
12759;BME280;20944;47.048;15.390;2023-04-08T02:01:44;97437.88;;;7.43;61.77
12759;BME280;20944;47.048;15.390;2023-04-08T02:04:12;97446.78;;;7.32;63.01
12759;BME280;20944;47.048;15.390;2023-04-08T02:06:40;97441.78;;;7.19;64.95
12759;BME280;20944;47.048;15.390;2023-04-08T02:09:09;97423.72;;;7.09;66.55
12759;BME280;20944;47.048;15.390;2023-04-08T02:11:37;97452.13;;;7.24;67.29
12759;BME280;20944;47.048;15.390;2023-04-08T02:14:07;97455.53;;;7.27;64.96
12759;BME280;20944;47.048;15.390;2023-04-08T02:16:39;97458.09;;;7.30;63.63
12759;BME280;20944;47.048;15.390;2023-04-08T02:19:15;97458.09;;;7.29;62.64
12759;BME280;20944;47.048;15.390;2023-04-08T02:21:47;97431.38;;;7.19;63.18
12759;BME280;20944;47.048;15.390;2023-04-08T02:24:17;97452.56;;;7.47;62.62
12759;BME280;20944;47.048;15.390;2023-04-08T02:26:48;97114.13;;;5.51;61.86
12759;BME280;20944;47.048;15.390;2023-04-08T02:29:19;97455.25;;;7.44;62.84
12759;BME280;20944;47.048;15.390;2023-04-08T02:31:48;97462.25;;;7.41;63.97
12759;BME280;20944;47.048;15.390;2023-04-08T02:34:19;97460.38;;;7.47;64.68
12759;BME280;20944;47.048;15.390;2023-04-08T02:36:49;97455.94;;;7.52;64.15
12759;BME280;20944;47.048;15.390;2023-04-08T02:39:17;97398.75;;;6.97;64.68
12759;BME280;20944;47.048;15.390;2023-04-08T02:41:46;97460.22;;;7.56;63.98
12759;BME280;20944;47.048;15.390;2023-04-08T02:44:14;97453.19;;;7.60;64.11
12759;BME280;20944;47.048;15.390;2023-04-08T02:46:43;97460.47;;;7.44;63.67
12759;BME280;20944;47.048;15.390;2023-04-08T02:49:11;97444.88;;;7.40;63.77
12759;BME280;20944;47.048;15.390;2023-04-08T02:51:40;97451.09;;;7.33;64.06
12759;BME280;20944;47.048;15.390;2023-04-08T02:54:08;97442.34;;;7.35;65.10
12759;BME280;20944;47.048;15.390;2023-04-08T02:56:36;97450.31;;;7.27;66.61
12759;BME280;20944;47.048;15.390;2023-04-08T02:59:04;97446.69;;;7.38;66.08
12759;BME280;20944;47.048;15.390;2023-04-08T03:01:32;97450.47;;;7.20;67.30
12759;BME280;20944;47.048;15.390;2023-04-08T03:04:02;97446.19;;;7.17;66.92
12759;BME280;20944;47.048;15.390;2023-04-08T03:06:30;97448.69;;;7.22;66.42
12759;BME280;20944;47.048;15.390;2023-04-08T03:08:58;97446.94;;;7.24;66.62
12759;BME280;20944;47.048;15.390;2023-04-08T03:11:27;97432.25;;;7.18;65.96
12759;BME280;20944;47.048;15.390;2023-04-08T03:13:55;97405.63;;;7.01;66.28
12759;BME280;20944;47.048;15.390;2023-04-08T03:16:23;97448.69;;;7.22;67.27
12759;BME280;20944;47.048;15.390;2023-04-08T03:18:51;97457.22;;;7.32;66.54
12759;BME280;20944;47.048;15.390;2023-04-08T03:21:21;97460.75;;;7.27;66.18
12759;BME280;20944;47.048;15.390;2023-04-08T03:23:49;97461.81;;;7.16;67.60
12759;BME280;20944;47.048;15.390;2023-04-08T03:26:17;97468.59;;;7.26;67.23
12759;BME280;20944;47.048;15.390;2023-04-08T03:28:45;97457.31;;;7.25;67.65
12759;BME280;20944;47.048;15.390;2023-04-08T03:31:14;97452.88;;;7.30;68.90
12759;BME280;20944;47.048;15.390;2023-04-08T03:33:42;97451.19;;;7.28;69.04
12759;BME280;20944;47.048;15.390;2023-04-08T03:36:10;97438.25;;;7.22;69.39
12759;BME280;20944;47.048;15.390;2023-04-08T03:38:40;97454.50;;;7.38;68.56
12759;BME280;20944;47.048;15.390;2023-04-08T03:41:08;97428.03;;;7.11;68.32
12759;BME280;20944;47.048;15.390;2023-04-08T03:43:36;97467.69;;;7.27;69.19
12759;BME280;20944;47.048;15.390;2023-04-08T03:46:05;97473.78;;;7.27;70.59
12759;BME280;20944;47.048;15.390;2023-04-08T03:48:33;97475.66;;;7.19;71.02
12759;BME280;20944;47.048;15.390;2023-04-08T03:51:01;97475.78;;;7.10;71.58
12759;BME280;20944;47.048;15.390;2023-04-08T03:53:29;97473.19;;;7.10;71.46
12759;BME280;20944;47.048;15.390;2023-04-08T03:55:59;97457.13;;;6.84;73.31
12759;BME280;20944;47.048;15.390;2023-04-08T03:58:29;97340.28;;;6.11;72.76
12759;BME280;20944;47.048;15.390;2023-04-08T04:00:57;97480.34;;;6.97;71.56
12759;BME280;20944;47.048;15.390;2023-04-08T04:03:26;97467.84;;;6.64;73.60
12759;BME280;20944;47.048;15.390;2023-04-08T04:05:54;97484.91;;;6.83;74.15
12759;BME280;20944;47.048;15.390;2023-04-08T04:08:22;97368.78;;;6.19;73.86
12759;BME280;20944;47.048;15.390;2023-04-08T04:10:51;97496.03;;;6.94;75.46
12759;BME280;20944;47.048;15.390;2023-04-08T04:13:20;97504.81;;;6.89;77.89
12759;BME280;20944;47.048;15.390;2023-04-08T04:15:48;97503.19;;;6.82;78.66
12759;BME280;20944;47.048;15.390;2023-04-08T04:18:16;97466.16;;;6.60;79.73
12759;BME280;20944;47.048;15.390;2023-04-08T04:20:45;97500.53;;;6.83;78.58
12759;BME280;20944;47.048;15.390;2023-04-08T04:23:13;97510.25;;;6.72;79.64
12759;BME280;20944;47.048;15.390;2023-04-08T04:25:41;97507.72;;;6.66;81.01
12759;BME280;20944;47.048;15.390;2023-04-08T04:28:10;97518.91;;;6.72;82.24
12759;BME280;20944;47.048;15.390;2023-04-08T04:30:39;97517.97;;;6.78;83.71
12759;BME280;20944;47.048;15.390;2023-04-08T04:33:07;97517.97;;;6.78;83.01
12759;BME280;20944;47.048;15.390;2023-04-08T04:35:35;97497.53;;;6.52;83.35
12759;BME280;20944;47.048;15.390;2023-04-08T04:38:04;97514.78;;;6.59;86.05
12759;BME280;20944;47.048;15.390;2023-04-08T04:40:36;97494.00;;;6.56;88.43
12759;BME280;20944;47.048;15.390;2023-04-08T04:43:04;97426.25;;;6.01;89.45
12759;BME280;20944;47.048;15.390;2023-04-08T04:45:32;97529.56;;;6.57;91.45
12759;BME280;20944;47.048;15.390;2023-04-08T04:48:02;97526.00;;;6.63;91.17
12759;BME280;20944;47.048;15.390;2023-04-08T04:50:30;97546.03;;;6.58;90.95
12759;BME280;20944;47.048;15.390;2023-04-08T04:52:59;97538.19;;;6.61;90.62
12759;BME280;20944;47.048;15.390;2023-04-08T04:55:27;97535.69;;;6.53;91.47
12759;BME280;20944;47.048;15.390;2023-04-08T04:57:55;97551.38;;;6.47;94.02
12759;BME280;20944;47.048;15.390;2023-04-08T05:00:23;97552.41;;;6.35;95.26
12759;BME280;20944;47.048;15.390;2023-04-08T05:02:51;97549.72;;;6.40;96.25
12759;BME280;20944;47.048;15.390;2023-04-08T05:05:21;97556.59;;;6.48;95.69
12759;BME280;20944;47.048;15.390;2023-04-08T05:07:49;97560.03;;;6.49;96.79
12759;BME280;20944;47.048;15.390;2023-04-08T05:10:18;97544.56;;;6.38;96.94
12759;BME280;20944;47.048;15.390;2023-04-08T05:12:46;97565.19;;;6.52;95.91
12759;BME280;20944;47.048;15.390;2023-04-08T05:15:14;97565.25;;;6.49;92.47
12759;BME280;20944;47.048;15.390;2023-04-08T05:17:42;97568.88;;;6.36;94.21
12759;BME280;20944;47.048;15.390;2023-04-08T05:20:10;97562.91;;;6.28;95.42
12759;BME280;20944;47.048;15.390;2023-04-08T05:22:42;97555.31;;;6.08;96.80
12759;BME280;20944;47.048;15.390;2023-04-08T05:25:11;97566.44;;;6.20;97.77
12759;BME280;20944;47.048;15.390;2023-04-08T05:27:39;97530.22;;;6.05;96.78
12759;BME280;20944;47.048;15.390;2023-04-08T05:30:08;97571.63;;;6.22;97.01
12759;BME280;20944;47.048;15.390;2023-04-08T05:32:36;97557.25;;;5.92;99.71
12759;BME280;20944;47.048;15.390;2023-04-08T05:35:05;97586.63;;;6.00;99.31
12759;BME280;20944;47.048;15.390;2023-04-08T05:37:35;97585.81;;;5.95;100.00
12759;BME280;20944;47.048;15.390;2023-04-08T05:40:05;97591.78;;;6.03;100.00
12759;BME280;20944;47.048;15.390;2023-04-08T05:42:34;97463.41;;;5.30;100.00
12759;BME280;20944;47.048;15.390;2023-04-08T05:45:03;97570.16;;;6.00;100.00
12759;BME280;20944;47.048;15.390;2023-04-08T05:47:32;97596.13;;;6.01;100.00
12759;BME280;20944;47.048;15.390;2023-04-08T05:50:00;97597.84;;;6.05;100.00
12759;BME280;20944;47.048;15.390;2023-04-08T05:52:28;97584.09;;;5.89;100.00
12759;BME280;20944;47.048;15.390;2023-04-08T05:54:56;97613.38;;;6.13;100.00
12759;BME280;20944;47.048;15.390;2023-04-08T05:57:26;97516.94;;;5.48;100.00
12759;BME280;20944;47.048;15.390;2023-04-08T05:59:54;97582.41;;;5.87;100.00
12759;BME280;20944;47.048;15.390;2023-04-08T06:02:22;97571.16;;;5.83;100.00
12759;BME280;20944;47.048;15.390;2023-04-08T06:04:50;97608.31;;;5.99;100.00
12759;BME280;20944;47.048;15.390;2023-04-08T06:07:18;97567.81;;;5.71;100.00
12759;BME280;20944;47.048;15.390;2023-04-08T06:09:47;97574.00;;;5.60;100.00
12759;BME280;20944;47.048;15.390;2023-04-08T06:12:15;97572.25;;;5.59;100.00
12759;BME280;20944;47.048;15.390;2023-04-08T06:14:44;97592.06;;;5.73;100.00
12759;BME280;20944;47.048;15.390;2023-04-08T06:17:12;97600.69;;;5.76;100.00
12759;BME280;20944;47.048;15.390;2023-04-08T06:19:41;97616.28;;;5.76;100.00
12759;BME280;20944;47.048;15.390;2023-04-08T06:22:09;97616.25;;;5.78;100.00
12759;BME280;20944;47.048;15.390;2023-04-08T06:24:37;97593.03;;;5.61;100.00
12759;BME280;20944;47.048;15.390;2023-04-08T06:27:06;97624.91;;;5.78;100.00
12759;BME280;20944;47.048;15.390;2023-04-08T06:29:34;97618.81;;;5.85;100.00
12759;BME280;20944;47.048;15.390;2023-04-08T06:32:04;97623.03;;;6.00;100.00
12759;BME280;20944;47.048;15.390;2023-04-08T06:34:32;97633.38;;;6.06;100.00
12759;BME280;20944;47.048;15.390;2023-04-08T06:37:01;97633.38;;;6.06;100.00
12759;BME280;20944;47.048;15.390;2023-04-08T06:39:29;97549.69;;;5.63;100.00
12759;BME280;20944;47.048;15.390;2023-04-08T06:41:57;97635.00;;;6.18;100.00
12759;BME280;20944;47.048;15.390;2023-04-08T06:44:25;97616.94;;;6.04;100.00
12759;BME280;20944;47.048;15.390;2023-04-08T06:46:54;97592.75;;;5.94;100.00
12759;BME280;20944;47.048;15.390;2023-04-08T06:49:24;97638.41;;;6.21;100.00
12759;BME280;20944;47.048;15.390;2023-04-08T06:51:53;97628.09;;;6.12;100.00
12759;BME280;20944;47.048;15.390;2023-04-08T06:54:21;97623.72;;;6.16;100.00
12759;BME280;20944;47.048;15.390;2023-04-08T06:56:50;97574.63;;;5.82;100.00
12759;BME280;20944;47.048;15.390;2023-04-08T06:59:18;97653.91;;;6.35;100.00
12759;BME280;20944;47.048;15.390;2023-04-08T07:01:46;97655.63;;;6.33;100.00
12759;BME280;20944;47.048;15.390;2023-04-08T07:04:14;97646.16;;;6.28;100.00
12759;BME280;20944;47.048;15.390;2023-04-08T07:06:44;97634.06;;;6.22;100.00
12759;BME280;20944;47.048;15.390;2023-04-08T07:09:12;97662.53;;;6.37;100.00
12759;BME280;20944;47.048;15.390;2023-04-08T07:11:41;97659.97;;;6.34;100.00
12759;BME280;20944;47.048;15.390;2023-04-08T07:14:09;97619.44;;;6.12;100.00
12759;BME280;20944;47.048;15.390;2023-04-08T07:16:38;97659.97;;;6.34;100.00
12759;BME280;20944;47.048;15.390;2023-04-08T07:19:06;97666.03;;;6.35;100.00
12759;BME280;20944;47.048;15.390;2023-04-08T07:21:35;97673.03;;;6.30;100.00
12759;BME280;20944;47.048;15.390;2023-04-08T07:24:05;97657.56;;;6.17;100.00
12759;BME280;20944;47.048;15.390;2023-04-08T07:26:33;97675.69;;;6.25;100.00
12759;BME280;20944;47.048;15.390;2023-04-08T07:29:01;97674.75;;;6.31;100.00
12759;BME280;20944;47.048;15.390;2023-04-08T07:31:29;97667.94;;;6.19;100.00
12759;BME280;20944;47.048;15.390;2023-04-08T07:33:58;97680.84;;;6.27;100.00
12759;BME280;20944;47.048;15.390;2023-04-08T07:36:26;97690.31;;;6.34;100.00
12759;BME280;20944;47.048;15.390;2023-04-08T07:38:54;97689.38;;;6.42;100.00
12759;BME280;20944;47.048;15.390;2023-04-08T07:41:24;97660.09;;;6.24;100.00
12759;BME280;20944;47.048;15.390;2023-04-08T07:43:52;97652.28;;;6.24;100.00
12759;BME280;20944;47.048;15.390;2023-04-08T07:46:21;97698.00;;;6.47;100.00
12759;BME280;20944;47.048;15.390;2023-04-08T07:48:49;97696.31;;;6.40;100.00
12759;BME280;20944;47.048;15.390;2023-04-08T07:51:18;97635.22;;;5.93;100.00
12759;BME280;20944;47.048;15.390;2023-04-08T07:53:47;97706.78;;;6.37;100.00
12759;BME280;20944;47.048;15.390;2023-04-08T07:56:15;97625.72;;;5.92;100.00
12759;BME280;20944;47.048;15.390;2023-04-08T07:58:46;97708.53;;;6.37;100.00
12759;BME280;20944;47.048;15.390;2023-04-08T08:01:20;97708.53;;;6.35;100.00
12759;BME280;20944;47.048;15.390;2023-04-08T08:03:49;97562.03;;;5.39;100.00
12759;BME280;20944;47.048;15.390;2023-04-08T08:06:19;97719.03;;;6.26;100.00
12759;BME280;20944;47.048;15.390;2023-04-08T08:08:47;97730.31;;;6.25;100.00
12759;BME280;20944;47.048;15.390;2023-04-08T08:11:16;97727.75;;;6.19;100.00
12759;BME280;20944;47.048;15.390;2023-04-08T08:13:45;97727.81;;;6.13;100.00
12759;BME280;20944;47.048;15.390;2023-04-08T08:16:14;97727.91;;;6.04;100.00
12759;BME280;20944;47.048;15.390;2023-04-08T08:18:42;97732.25;;;6.02;100.00
12759;BME280;20944;47.048;15.390;2023-04-08T08:21:10;97731.41;;;5.97;100.00
12759;BME280;20944;47.048;15.390;2023-04-08T08:23:39;97687.34;;;5.77;100.00
12759;BME280;20944;47.048;15.390;2023-04-08T08:26:08;97729.63;;;6.05;100.00
12759;BME280;20944;47.048;15.390;2023-04-08T08:28:37;97738.25;;;6.10;100.00
12759;BME280;20944;47.048;15.390;2023-04-08T08:31:07;97737.38;;;6.12;100.00
12759;BME280;20944;47.048;15.390;2023-04-08T08:33:35;97700.31;;;5.81;100.00
12759;BME280;20944;47.048;15.390;2023-04-08T08:36:04;97758.19;;;6.09;100.00
12759;BME280;20944;47.048;15.390;2023-04-08T08:38:33;97743.44;;;6.13;100.00
12759;BME280;20944;47.048;15.390;2023-04-08T08:41:01;97758.13;;;6.15;100.00
12759;BME280;20944;47.048;15.390;2023-04-08T08:43:30;97715.03;;;5.81;100.00
12759;BME280;20944;47.048;15.390;2023-04-08T08:46:00;97757.28;;;6.15;100.00
12759;BME280;20944;47.048;15.390;2023-04-08T08:48:31;97677.94;;;5.62;100.00
12759;BME280;20944;47.048;15.390;2023-04-08T08:51:00;97734.81;;;6.03;100.00
12759;BME280;20944;47.048;15.390;2023-04-08T08:53:29;97731.28;;;6.16;100.00
12759;BME280;20944;47.048;15.390;2023-04-08T08:56:01;97809.94;;;6.44;100.00
12759;BME280;20944;47.048;15.390;2023-04-08T08:58:32;97750.94;;;6.48;99.06
12759;BME280;20944;47.048;15.390;2023-04-08T09:01:01;97756.25;;;6.34;99.35
12759;BME280;20944;47.048;15.390;2023-04-08T09:03:30;97736.50;;;6.12;100.00
12759;BME280;20944;47.048;15.390;2023-04-08T09:06:00;97757.97;;;6.37;100.00
12759;BME280;20944;47.048;15.390;2023-04-08T09:08:30;97707.09;;;6.05;98.97
12759;BME280;20944;47.048;15.390;2023-04-08T09:11:13;97743.41;;;6.17;98.35
12759;BME280;20944;47.048;15.390;2023-04-08T09:13:42;97769.19;;;6.43;98.58
12759;BME280;20944;47.048;15.390;2023-04-08T09:16:12;97774.34;;;6.49;98.50
12759;BME280;20944;47.048;15.390;2023-04-08T09:18:46;97771.75;;;6.45;97.50
12759;BME280;20944;47.048;15.390;2023-04-08T09:21:16;97770.97;;;6.38;98.13
12759;BME280;20944;47.048;15.390;2023-04-08T09:23:46;97691.63;;;5.85;98.20
12759;BME280;20944;47.048;15.390;2023-04-08T09:26:16;97775.16;;;6.52;97.23
12759;BME280;20944;47.048;15.390;2023-04-08T09:28:56;97757.78;;;6.57;96.72
12759;BME280;20944;47.048;15.390;2023-04-08T09:31:35;97739.72;;;6.38;94.66
12759;BME280;20944;47.048;15.390;2023-04-08T09:34:11;97756.94;;;6.52;97.39
12759;BME280;20944;47.048;15.390;2023-04-08T09:36:40;97776.72;;;6.71;96.16
12759;BME280;20944;47.048;15.390;2023-04-08T09:39:08;97734.41;;;6.51;95.91
12759;BME280;20944;47.048;15.390;2023-04-08T09:41:37;97777.59;;;6.70;96.90
12759;BME280;20944;47.048;15.390;2023-04-08T09:44:07;97781.78;;;6.85;95.50
12759;BME280;20944;47.048;15.390;2023-04-08T09:46:39;97783.47;;;6.92;96.04
12759;BME280;20944;47.048;15.390;2023-04-08T09:49:11;97792.13;;;6.91;94.41
12759;BME280;20944;47.048;15.390;2023-04-08T09:51:44;97774.75;;;6.93;97.24
12759;BME280;20944;47.048;15.390;2023-04-08T09:54:19;97796.31;;;7.07;94.76
12759;BME280;20944;47.048;15.390;2023-04-08T09:56:59;97703.06;;;6.60;94.35
12759;BME280;20944;47.048;15.390;2023-04-08T09:59:30;97794.41;;;7.21;95.31
12759;BME280;20944;47.048;15.390;2023-04-08T10:02:06;97787.44;;;7.22;94.02
12759;BME280;20944;47.048;15.390;2023-04-08T10:04:40;97752.00;;;7.09;94.84
12759;BME280;20944;47.048;15.390;2023-04-08T10:07:13;97795.03;;;7.40;93.61
12759;BME280;20944;47.048;15.390;2023-04-08T10:09:42;97764.53;;;7.47;93.79
12759;BME280;20944;47.048;15.390;2023-04-08T10:12:11;97762.00;;;7.41;93.77
12759;BME280;20944;47.048;15.390;2023-04-08T10:14:39;97788.31;;;7.89;95.37
12759;BME280;20944;47.048;15.390;2023-04-08T10:17:24;97796.69;;;8.09;94.25
12759;BME280;20944;47.048;15.390;2023-04-08T10:19:55;97788.66;;;8.21;93.13
12759;BME280;20944;47.048;15.390;2023-04-08T10:22:45;97786.06;;;8.21;90.18
12759;BME280;20944;47.048;15.390;2023-04-08T10:25:29;97743.69;;;8.04;90.12
12759;BME280;20944;47.048;15.390;2023-04-08T10:27:59;97729.03;;;7.97;89.94
12759;BME280;20944;47.048;15.390;2023-04-08T10:30:39;97793.09;;;8.16;90.81
12759;BME280;20944;47.048;15.390;2023-04-08T10:33:10;97787.13;;;8.08;89.26
12759;BME280;20944;47.048;15.390;2023-04-08T10:35:42;97773.25;;;8.04;89.53
12759;BME280;20944;47.048;15.390;2023-04-08T10:38:12;97788.19;;;7.96;89.71
12759;BME280;20944;47.048;15.390;2023-04-08T10:40:41;97736.25;;;7.81;90.09
12759;BME280;20944;47.048;15.390;2023-04-08T10:43:11;97712.16;;;7.64;87.57
12759;BME280;20944;47.048;15.390;2023-04-08T10:45:40;97784.66;;;8.00;88.42
12759;BME280;20944;47.048;15.390;2023-04-08T10:48:13;97775.78;;;8.10;88.42
12759;BME280;20944;47.048;15.390;2023-04-08T10:50:51;97777.56;;;8.08;87.21
12759;BME280;20944;47.048;15.390;2023-04-08T10:53:25;97780.84;;;8.21;88.50
12759;BME280;20944;47.048;15.390;2023-04-08T10:55:54;97778.09;;;8.30;88.51
12759;BME280;20944;47.048;15.390;2023-04-08T10:58:22;97667.47;;;7.85;88.16
12759;BME280;20944;47.048;15.390;2023-04-08T11:00:50;97783.00;;;8.50;86.77
12759;BME280;20944;47.048;15.390;2023-04-08T11:03:19;97779.06;;;8.25;86.05
12759;BME280;20944;47.048;15.390;2023-04-08T11:05:49;97782.69;;;8.15;86.83
12759;BME280;20944;47.048;15.390;2023-04-08T11:08:17;97784.41;;;8.16;87.95
12759;BME280;20944;47.048;15.390;2023-04-08T11:10:47;97632.72;;;7.29;87.23
12759;BME280;20944;47.048;15.390;2023-04-08T11:13:15;97778.19;;;8.23;88.05
12759;BME280;20944;47.048;15.390;2023-04-08T11:15:43;97781.75;;;8.19;88.46
12759;BME280;20944;47.048;15.390;2023-04-08T11:18:12;97773.91;;;8.20;88.43
12759;BME280;20944;47.048;15.390;2023-04-08T11:20:42;97755.22;;;7.92;89.48
12759;BME280;20944;47.048;15.390;2023-04-08T11:23:13;97779.28;;;8.11;89.30
12759;BME280;20944;47.048;15.390;2023-04-08T11:25:44;97618.97;;;7.19;90.56
12759;BME280;20944;47.048;15.390;2023-04-08T11:28:13;97760.22;;;8.04;88.94
12759;BME280;20944;47.048;15.390;2023-04-08T11:30:42;97775.00;;;8.05;88.87
12759;BME280;20944;47.048;15.390;2023-04-08T11:33:12;97780.22;;;8.05;89.80
12759;BME280;20944;47.048;15.390;2023-04-08T11:35:40;97620.75;;;7.17;90.78
12759;BME280;20944;47.048;15.390;2023-04-08T11:38:09;97403.81;;;5.89;88.61
12759;BME280;20944;47.048;15.390;2023-04-08T11:40:39;97749.00;;;7.99;87.50
12759;BME280;20944;47.048;15.390;2023-04-08T11:43:19;97749.50;;;8.21;88.26
12759;BME280;20944;47.048;15.390;2023-04-08T11:45:48;97776.91;;;8.51;85.96
12759;BME280;20944;47.048;15.390;2023-04-08T11:48:16;97782.91;;;8.56;84.10
12759;BME280;20944;47.048;15.390;2023-04-08T11:50:45;97772.09;;;8.76;86.82
12759;BME280;20944;47.048;15.390;2023-04-08T11:53:16;97774.53;;;8.87;85.12
12759;BME280;20944;47.048;15.390;2023-04-08T11:55:47;97771.81;;;8.91;82.36
12759;BME280;20944;47.048;15.390;2023-04-08T11:58:15;97775.31;;;8.90;82.80
12759;BME280;20944;47.048;15.390;2023-04-08T12:00:44;97771.69;;;8.98;83.13
12759;BME280;20944;47.048;15.390;2023-04-08T12:03:12;97690.34;;;8.22;82.55
12759;BME280;20944;47.048;15.390;2023-04-08T12:05:41;97767.59;;;8.33;84.25
12759;BME280;20944;47.048;15.390;2023-04-08T12:08:09;97760.09;;;8.14;86.80
12759;BME280;20944;47.048;15.390;2023-04-08T12:10:37;97766.97;;;8.19;85.65
12759;BME280;20944;47.048;15.390;2023-04-08T12:13:07;97776.66;;;8.09;86.35
12759;BME280;20944;47.048;15.390;2023-04-08T12:15:35;97774.94;;;8.08;87.54
12759;BME280;20944;47.048;15.390;2023-04-08T12:18:04;97777.84;;;7.90;87.34
12759;BME280;20944;47.048;15.390;2023-04-08T12:20:32;97776.25;;;7.81;87.58
12759;BME280;20944;47.048;15.390;2023-04-08T12:23:00;97770.97;;;7.84;88.49
12759;BME280;20944;47.048;15.390;2023-04-08T12:25:29;97767.47;;;7.87;88.36
12759;BME280;20944;47.048;15.390;2023-04-08T12:27:57;97756.47;;;7.65;87.85
12759;BME280;20944;47.048;15.390;2023-04-08T12:30:27;97749.31;;;7.79;87.36
12759;BME280;20944;47.048;15.390;2023-04-08T12:32:55;97762.06;;;7.98;87.41
12759;BME280;20944;47.048;15.390;2023-04-08T12:35:23;97739.69;;;7.83;89.95
12759;BME280;20944;47.048;15.390;2023-04-08T12:37:52;97717.13;;;7.80;89.70
12759;BME280;20944;47.048;15.390;2023-04-08T12:40:20;97767.00;;;8.18;88.79
12759;BME280;20944;47.048;15.390;2023-04-08T12:42:48;97771.16;;;8.28;88.40
12759;BME280;20944;47.048;15.390;2023-04-08T12:45:16;97749.59;;;8.17;87.80
12759;BME280;20944;47.048;15.390;2023-04-08T12:47:46;97760.00;;;8.20;89.02
12759;BME280;20944;47.048;15.390;2023-04-08T12:50:14;97771.06;;;8.35;89.71
12759;BME280;20944;47.048;15.390;2023-04-08T12:52:43;97764.13;;;8.36;86.76
12759;BME280;20944;47.048;15.390;2023-04-08T12:55:11;97765.84;;;8.35;87.42
12759;BME280;20944;47.048;15.390;2023-04-08T12:57:39;97765.09;;;8.26;86.87
12759;BME280;20944;47.048;15.390;2023-04-08T13:00:08;97764.41;;;8.15;87.93
12759;BME280;20944;47.048;15.390;2023-04-08T13:02:37;97768.72;;;8.19;89.56
12759;BME280;20944;47.048;15.390;2023-04-08T13:05:08;97676.47;;;7.67;90.50
12759;BME280;20944;47.048;15.390;2023-04-08T13:07:36;97639.34;;;7.51;90.28
12759;BME280;20944;47.048;15.390;2023-04-08T13:10:06;97771.06;;;8.34;89.24